Time;durP1;ratioP1;P1;durP2;ratioP2;P2;SDS_P1;SDS_P2;PMS_P1;PMS_P2;Temp;Humidity;BMP_temperature;BMP_pressure;BME280_temperature;BME280_humidity;BME280_pressure;Samples;Min_cycle;Max_cycle;Signal;HPM_P1;HPM_P2
2022/04/02 00:02:06;;;;;;;3.38;2.15;;;3.60;99.90;;;;;;5079915;28;20109;-72
2022/04/02 00:04:32;;;;;;;3.88;2.20;;;3.60;99.90;;;;;;5063140;28;20028;-72
2022/04/02 00:06:58;;;;;;;3.53;2.42;;;3.60;99.90;;;;;;5080560;28;20036;-69
2022/04/02 00:09:24;;;;;;;3.95;2.25;;;3.50;99.90;;;;;;5080996;28;20292;-71
2022/04/02 00:11:50;;;;;;;5.22;2.63;;;3.60;99.90;;;;;;5062942;28;20039;-72
2022/04/02 00:14:16;;;;;;;4.03;2.53;;;3.50;99.90;;;;;;5079648;28;20025;-71
2022/04/02 00:16:42;;;;;;;5.20;2.60;;;3.40;99.90;;;;;;5080336;28;20028;-71
2022/04/02 00:19:07;;;;;;;3.13;2.63;;;3.40;99.90;;;;;;5080962;28;20043;-72
2022/04/02 00:21:34;;;;;;;4.15;2.67;;;3.50;99.90;;;;;;5080082;28;20404;-72
2022/04/02 00:24:01;;;;;;;4.88;2.75;;;3.50;99.90;;;;;;5080252;28;20059;-71
2022/04/02 00:26:27;;;;;;;3.65;2.55;;;3.40;99.90;;;;;;5079509;28;20037;-72
2022/04/02 00:28:53;;;;;;;3.05;2.28;;;3.40;99.90;;;;;;5079492;28;20052;-71
2022/04/02 00:31:21;;;;;;;3.85;2.30;;;3.30;99.90;;;;;;5079237;28;20029;-71
2022/04/02 00:33:49;;;;;;;7.32;2.70;;;3.30;99.90;;;;;;5079968;28;20025;-71
2022/04/02 00:36:18;;;;;;;7.47;2.58;;;3.20;99.90;;;;;;5079128;28;20086;-71
2022/04/02 00:38:44;;;;;;;4.20;2.58;;;3.20;99.90;;;;;;5079719;28;20029;-72
2022/04/02 00:41:10;;;;;;;6.15;2.95;;;3.20;99.90;;;;;;5079040;28;20053;-72
2022/04/02 00:43:39;;;;;;;4.82;2.92;;;3.20;99.90;;;;;;5079074;28;20045;-71
2022/04/02 00:46:07;;;;;;;4.22;2.90;;;3.30;99.90;;;;;;5079936;28;20343;-72
2022/04/02 00:48:34;;;;;;;4.82;2.67;;;3.20;99.90;;;;;;5079256;28;20103;-70
2022/04/02 00:51:02;;;;;;;5.70;2.97;;;3.20;99.90;;;;;;5062280;28;20120;-70
2022/04/02 00:53:36;;;;;;;4.95;2.75;;;3.20;99.90;;;;;;5079010;28;20112;-71
2022/04/02 00:56:04;;;;;;;6.03;2.72;;;3.10;99.90;;;;;;5078818;28;20380;-70
2022/04/02 00:58:31;;;;;;;4.38;2.53;;;3.10;99.90;;;;;;5062319;28;20296;-70
2022/04/02 01:00:58;;;;;;;3.75;2.78;;;3.10;99.90;;;;;;5078290;28;20032;-71
2022/04/02 01:03:28;;;;;;;4.18;2.40;;;3.10;99.90;;;;;;5078600;28;20029;-71
2022/04/02 01:05:57;;;;;;;3.97;2.33;;;3.10;99.90;;;;;;5078792;28;20363;-72
2022/04/02 01:08:26;;;;;;;5.15;2.42;;;3.10;99.90;;;;;;5062550;28;20119;-71
2022/04/02 01:10:55;;;;;;;3.70;2.13;;;3.10;99.90;;;;;;5079162;28;20349;-71
2022/04/02 01:13:22;;;;;;;6.15;2.50;;;3.10;99.90;;;;;;5078777;28;20299;-71
2022/04/02 01:15:49;;;;;;;7.88;2.70;;;3.00;99.90;;;;;;5062030;28;20307;-71
2022/04/02 01:18:17;;;;;;;5.50;2.30;;;2.90;99.90;;;;;;5062141;28;20086;-71
2022/04/02 01:20:43;;;;;;;5.35;2.65;;;2.90;99.90;;;;;;5061784;28;20382;-71
2022/04/02 01:23:09;;;;;;;3.10;2.50;;;2.90;99.90;;;;;;5079177;28;20056;-72
2022/04/02 01:25:41;;;;;;;6.70;2.60;;;3.00;99.90;;;;;;5078470;28;20040;-71
2022/04/02 01:28:16;;;;;;;4.05;2.33;;;2.90;99.90;;;;;;5062950;28;20040;-72
2022/04/02 01:30:44;;;;;;;6.00;2.35;;;2.90;99.90;;;;;;5061680;28;20131;-72
2022/04/02 01:33:09;;;;;;;2.83;2.40;;;2.90;99.90;;;;;;5078512;28;20113;-71
2022/04/02 01:35:35;;;;;;;4.70;2.30;;;2.90;99.90;;;;;;5078488;28;20035;-71
2022/04/02 01:38:18;;;;;;;4.63;2.35;;;2.90;99.90;;;;;;5063793;28;20300;-72
2022/04/02 01:40:45;;;;;;;4.40;2.38;;;2.90;99.90;;;;;;5061341;28;20064;-71
2022/04/02 01:43:12;;;;;;;3.78;2.42;;;2.80;99.90;;;;;;5045362;28;20036;-72
2022/04/02 01:45:44;;;;;;;3.10;1.92;;;2.90;99.90;;;;;;5046466;28;20059;-71
2022/04/02 01:48:12;;;;;;;3.22;2.38;;;2.90;99.90;;;;;;5077891;28;20051;-71
2022/04/02 01:50:43;;;;;;;8.30;2.53;;;2.90;99.90;;;;;;5061578;28;20044;-72
2022/04/02 01:53:10;;;;;;;3.33;2.15;;;2.80;99.90;;;;;;5077891;28;20404;-71
2022/04/02 01:55:36;;;;;;;5.72;2.40;;;2.90;99.90;;;;;;5061537;28;20052;-72
2022/04/02 01:58:25;;;;;;;5.80;2.28;;;2.90;99.90;;;;;;5078198;28;20039;-72
2022/04/02 02:00:54;;;;;;;5.07;2.30;;;2.90;99.90;;;;;;5077484;28;20021;-70
2022/04/02 02:03:21;;;;;;;7.50;2.58;;;2.90;99.90;;;;;;5077420;28;20055;-71
2022/04/02 02:05:47;;;;;;;5.57;2.22;;;2.90;99.90;;;;;;5060908;28;20037;-71
2022/04/02 02:08:14;;;;;;;4.07;2.50;;;2.80;99.90;;;;;;5061191;28;20020;-70
2022/04/02 02:10:49;;;;;;;7.80;2.50;;;2.80;99.90;;;;;;5077424;28;20036;-70
2022/04/02 02:13:38;;;;;;;4.03;2.45;;;2.80;99.90;;;;;;5076594;28;20049;-70
2022/04/02 02:16:09;;;;;;;6.00;2.60;;;2.80;99.90;;;;;;5045486;28;20037;-71
2022/04/02 02:18:35;;;;;;;6.35;2.13;;;2.70;99.90;;;;;;5060815;28;20095;-71
2022/04/02 02:21:01;;;;;;;6.68;2.30;;;2.70;99.90;;;;;;5060687;28;20319;-70
2022/04/02 02:23:28;;;;;;;4.63;2.30;;;2.70;99.90;;;;;;5077197;28;20107;-70
2022/04/02 02:25:54;;;;;;;7.15;2.17;;;2.70;99.90;;;;;;5077982;28;20443;-70
2022/04/02 02:28:23;;;;;;;3.45;2.28;;;2.70;99.90;;;;;;5060893;28;20032;-70
2022/04/02 02:30:50;;;;;;;7.18;2.47;;;2.70;99.90;;;;;;5060574;28;20105;-70
2022/04/02 02:36:00;;;;;;;3.40;2.25;;;2.60;99.90;;;;;;5077274;28;20075;-70
2022/04/02 02:38:38;;;;;;;3.40;2.30;;;2.60;99.90;;;;;;5062822;28;20028;-70
2022/04/02 02:41:16;;;;;;;4.35;2.10;;;2.70;99.90;;;;;;5077216;28;20423;-70
2022/04/02 02:43:47;;;;;;;5.28;2.13;;;2.70;99.90;;;;;;5061528;28;20025;-70
2022/04/02 02:46:24;;;;;;;3.63;1.92;;;2.60;99.90;;;;;;5077079;28;20312;-71
2022/04/02 02:48:57;;;;;;;4.40;1.90;;;2.60;99.90;;;;;;5078045;28;20054;-70
2022/04/02 02:51:23;;;;;;;3.42;2.40;;;2.60;99.90;;;;;;5060687;28;20035;-70
2022/04/02 02:53:50;;;;;;;5.32;2.10;;;2.60;99.90;;;;;;5076732;28;20050;-70
2022/04/02 02:56:16;;;;;;;5.00;2.13;;;2.50;99.90;;;;;;5043578;28;20315;-71
2022/04/02 02:58:42;;;;;;;4.97;2.05;;;2.50;99.90;;;;;;5077901;28;20108;-70
2022/04/02 03:01:09;;;;;;;3.83;2.10;;;2.60;99.90;;;;;;5076438;28;20024;-71
2022/04/02 03:03:38;;;;;;;3.30;2.10;;;2.60;99.90;;;;;;5077643;28;20030;-70
2022/04/02 03:06:08;;;;;;;5.47;2.40;;;2.70;99.90;;;;;;5076816;28;20033;-71
2022/04/02 03:08:40;;;;;;;4.28;1.90;;;2.60;99.90;;;;;;5060569;28;20042;-71
2022/04/02 03:11:06;;;;;;;4.72;1.80;;;2.70;99.90;;;;;;5076262;28;20044;-69
2022/04/02 03:13:33;;;;;;;3.95;2.10;;;2.60;99.90;;;;;;5076239;28;20060;-70
2022/04/02 03:16:04;;;;;;;2.78;2.03;;;2.60;99.90;;;;;;5060357;28;20112;-70
2022/04/02 03:18:30;;;;;;;4.35;2.00;;;2.60;99.90;;;;;;5076359;28;20036;-70
2022/04/02 03:20:58;;;;;;;4.30;1.85;;;2.60;99.90;;;;;;5076288;28;20033;-71
2022/04/02 03:23:27;;;;;;;5.88;2.25;;;2.60;99.90;;;;;;5059772;28;20110;-70
2022/04/02 03:25:53;;;;;;;5.18;2.05;;;2.60;99.90;;;;;;5042997;28;20029;-71
2022/04/02 03:28:20;;;;;;;3.47;1.65;;;2.60;99.90;;;;;;5076581;28;20030;-71
2022/04/02 03:30:46;;;;;;;3.22;1.90;;;2.60;99.90;;;;;;5059509;28;20036;-71
2022/04/02 03:33:13;;;;;;;3.15;1.92;;;2.60;99.90;;;;;;5059512;28;20407;-72
2022/04/02 03:35:39;;;;;;;3.95;2.17;;;2.60;99.90;;;;;;5076842;28;20025;-71
2022/04/02 03:38:05;;;;;;;5.38;2.00;;;2.50;99.90;;;;;;5042877;28;20040;-70
2022/04/02 03:40:31;;;;;;;4.20;1.80;;;2.60;99.90;;;;;;5075914;28;20051;-71
2022/04/02 03:42:58;;;;;;;2.95;1.88;;;2.60;99.90;;;;;;5059306;28;20127;-71
2022/04/02 03:45:32;;;;;;;3.75;1.80;;;2.70;99.90;;;;;;5060485;28;20115;-70
2022/04/02 03:47:58;;;;;;;2.13;1.42;;;2.60;99.90;;;;;;5059351;28;20095;-71
2022/04/02 03:50:27;;;;;;;2.72;1.90;;;2.60;99.90;;;;;;5059687;28;20115;-71
2022/04/02 03:52:56;;;;;;;4.90;1.90;;;2.70;99.90;;;;;;5059918;28;20416;-71
2022/04/02 03:55:29;;;;;;;;;;;2.70;99.90;;;;;;5044920;28;20024;-71
2022/04/02 03:57:56;;;;;;;3.53;1.90;;;2.80;99.90;;;;;;5059451;28;19912;-71
2022/04/02 04:00:25;;;;;;;4.53;2.17;;;2.90;99.90;;;;;;5059508;28;20396;-71
2022/04/02 04:02:57;;;;;;;3.35;1.60;;;2.90;99.90;;;;;;5060459;28;20060;-71
2022/04/02 04:05:30;;;;;;;;;;;3.00;99.90;;;;;;5076197;28;20353;-71
2022/04/02 04:07:58;;;;;;;5.07;2.05;;;2.90;99.90;;;;;;5075810;28;19969;-69
2022/04/02 04:10:25;;;;;;;3.70;1.98;;;2.90;99.90;;;;;;5075677;28;20128;-71
2022/04/02 04:12:53;;;;;;;5.47;1.67;;;2.80;99.90;;;;;;5075714;28;20346;-71
2022/04/02 04:15:24;;;;;;;3.35;1.67;;;2.80;99.90;;;;;;5043905;28;20354;-71
2022/04/02 04:17:50;;;;;;;4.47;1.60;;;2.80;99.90;;;;;;5059257;28;20296;-71
2022/04/02 04:20:18;;;;;;;2.70;1.60;;;2.80;99.90;;;;;;5075752;28;20097;-71
2022/04/02 04:22:44;;;;;;;3.33;1.40;;;2.80;99.90;;;;;;5059642;28;20043;-71
2022/04/02 04:25:13;;;;;;;3.72;1.70;;;2.90;99.90;;;;;;5076168;28;20036;-71
2022/04/02 04:27:43;;;;;;;2.03;1.35;;;3.00;99.90;;;;;;5076013;28;20048;-71
2022/04/02 04:30:10;;;;;;;3.83;1.60;;;3.00;99.90;;;;;;5042796;28;20458;-71
2022/04/02 04:32:37;;;;;;;3.13;1.60;;;3.00;99.90;;;;;;5059039;28;20294;-71
2022/04/02 04:35:03;;;;;;;2.95;1.65;;;3.00;99.90;;;;;;5042637;28;20121;-71
2022/04/02 04:37:29;;;;;;;2.42;1.40;;;3.00;99.90;;;;;;5080013;28;20020;-71
2022/04/02 04:39:55;;;;;;;2.05;1.40;;;3.10;99.90;;;;;;5062606;28;20422;-71
2022/04/02 04:42:21;;;;;;;4.18;1.40;;;3.00;99.90;;;;;;5062643;28;20033;-71
2022/04/02 04:44:51;;;;;;;1.92;1.52;;;3.10;99.90;;;;;;5080264;28;20032;-70
2022/04/02 04:47:19;;;;;;;2.63;1.58;;;3.00;99.90;;;;;;5062773;28;20113;-71
2022/04/02 04:49:48;;;;;;;2.35;1.50;;;3.00;99.90;;;;;;5062900;28;20029;-71
2022/04/02 04:52:14;;;;;;;3.35;1.50;;;3.00;99.90;;;;;;5078865;28;20304;-71
2022/04/02 04:54:40;;;;;;;4.60;1.42;;;2.90;99.90;;;;;;5062278;28;20033;-71
2022/04/02 04:57:15;;;;;;;2.45;1.70;;;2.80;99.90;;;;;;5079075;28;20355;-71
2022/04/02 04:59:48;;;;;;;2.80;1.42;;;2.90;99.90;;;;;;5079447;28;20033;-70
2022/04/02 05:02:16;;;;;;;3.58;1.98;;;3.00;99.90;;;;;;5062311;28;20036;-71
2022/04/02 05:04:42;;;;;;;3.63;1.65;;;2.90;99.90;;;;;;5062185;28;20094;-71
2022/04/02 05:07:09;;;;;;;4.88;1.45;;;2.90;99.90;;;;;;5062209;28;20032;-72
2022/04/02 05:09:35;;;;;;;3.53;1.77;;;2.90;99.90;;;;;;5061894;28;20041;-71
2022/04/02 05:12:05;;;;;;;2.90;1.60;;;2.90;99.90;;;;;;5078603;28;20127;-71
2022/04/02 05:14:35;;;;;;;4.18;1.50;;;2.90;99.90;;;;;;5078476;28;20032;-69
2022/04/02 05:17:02;;;;;;;2.97;1.80;;;2.80;99.90;;;;;;5062245;28;20108;-70
2022/04/02 05:19:32;;;;;;;2.78;1.75;;;2.80;99.90;;;;;;5078408;28;20489;-70
2022/04/02 05:22:01;;;;;;;2.60;1.50;;;2.80;99.90;;;;;;5078245;28;20044;-69
2022/04/02 05:24:28;;;;;;;4.78;1.67;;;2.70;99.90;;;;;;5062018;28;20281;-70
2022/04/02 05:26:58;;;;;;;4.85;1.58;;;2.70;99.90;;;;;;5079349;28;20032;-70
2022/04/02 05:29:25;;;;;;;2.35;1.65;;;2.70;99.90;;;;;;5078175;28;20036;-70
2022/04/02 05:31:51;;;;;;;2.45;1.48;;;2.70;99.90;;;;;;5061721;28;20063;-71
2022/04/02 05:34:17;;;;;;;4.80;1.65;;;2.70;99.90;;;;;;5078508;28;20032;-71
2022/04/02 05:36:43;;;;;;;4.07;1.80;;;2.70;99.90;;;;;;5078676;28;20081;-71
2022/04/02 05:39:09;;;;;;;1.92;1.75;;;2.70;99.90;;;;;;5078929;28;20048;-71
2022/04/02 05:41:37;;;;;;;2.00;1.40;;;2.80;99.90;;;;;;5061534;28;20033;-74
2022/04/02 05:44:05;;;;;;;2.53;1.63;;;2.80;99.90;;;;;;5061596;28;20028;-71
2022/04/02 05:46:30;;;;;;;4.82;2.00;;;2.70;99.90;;;;;;5060414;28;20145;-71
2022/04/02 05:48:58;;;;;;;1.98;1.55;;;2.80;99.90;;;;;;5043912;28;20057;-72
2022/04/02 05:51:24;;;;;;;2.65;1.60;;;2.80;99.90;;;;;;5061254;28;20043;-71
2022/04/02 05:53:49;;;;;;;3.00;1.70;;;2.80;99.90;;;;;;5078005;28;20077;-69
2022/04/02 05:56:17;;;;;;;3.28;1.65;;;3.00;99.90;;;;;;5061153;28;20035;-72
2022/04/02 05:58:44;;;;;;;3.17;1.30;;;3.10;99.90;;;;;;5077881;28;20037;-71
2022/04/02 06:01:10;;;;;;;3.28;1.40;;;3.10;99.90;;;;;;5077580;28;20106;-71
2022/04/02 06:03:39;;;;;;;3.40;1.50;;;3.00;99.90;;;;;;5061094;28;20043;-71
2022/04/02 06:06:07;;;;;;;2.47;1.58;;;3.00;99.90;;;;;;5078377;28;20025;-71
2022/04/02 06:08:33;;;;;;;2.58;1.50;;;3.00;99.90;;;;;;5078057;28;20454;-71
2022/04/02 06:10:59;;;;;;;2.60;1.80;;;3.00;99.90;;;;;;5060551;28;20016;-71
2022/04/02 06:13:25;;;;;;;2.30;1.50;;;3.00;99.90;;;;;;5078562;28;20036;-71
2022/04/02 06:15:51;;;;;;;2.25;1.60;;;3.00;99.90;;;;;;5077317;28;20028;-72
2022/04/02 06:18:18;;;;;;;4.00;1.60;;;3.00;99.90;;;;;;5077982;28;20105;-70
2022/04/02 06:20:45;;;;;;;3.13;1.40;;;3.00;99.90;;;;;;5077797;28;20047;-71
2022/04/02 06:23:13;;;;;;;4.00;1.90;;;3.10;99.90;;;;;;5077223;28;20366;-70
2022/04/02 06:25:39;;;;;;;3.35;1.73;;;3.10;99.90;;;;;;5077812;28;20415;-70
2022/04/02 06:28:06;;;;;;;3.35;1.80;;;3.10;99.90;;;;;;5060514;28;20028;-71
2022/04/02 06:30:32;;;;;;;2.08;1.40;;;3.20;99.90;;;;;;5077714;28;20029;-70
2022/04/02 06:33:00;;;;;;;3.42;1.50;;;3.20;99.90;;;;;;5061311;28;20078;-70
2022/04/02 06:35:27;;;;;;;3.15;2.00;;;3.20;99.90;;;;;;5077694;28;20032;-71
2022/04/02 06:37:54;;;;;;;4.20;1.50;;;3.40;99.90;;;;;;5060180;28;20036;-70
2022/04/02 06:40:21;;;;;;;1.85;1.40;;;3.50;99.90;;;;;;5077492;28;20048;-71
2022/04/02 06:42:47;;;;;;;3.58;2.08;;;3.50;99.90;;;;;;5060359;28;20066;-70
2022/04/02 06:45:24;;;;;;;2.25;1.70;;;3.50;99.90;;;;;;5077586;28;20404;-71
2022/04/02 06:47:50;;;;;;;3.88;1.70;;;3.50;99.90;;;;;;5076851;28;20037;-71
2022/04/02 06:50:16;;;;;;;3.55;1.60;;;3.60;99.90;;;;;;5060142;28;20097;-70
2022/04/02 06:52:43;;;;;;;1.92;1.55;;;3.60;99.90;;;;;;5076932;28;20090;-71
2022/04/02 06:55:11;;;;;;;4.72;1.63;;;3.60;99.90;;;;;;5060142;28;20021;-72
2022/04/02 06:57:57;;;;;;;4.03;1.80;;;3.70;99.90;;;;;;5076472;28;20281;-71
2022/04/02 07:00:24;;;;;;;3.05;2.00;;;3.90;99.90;;;;;;5076596;28;20024;-71
2022/04/02 07:02:50;;;;;;;4.43;1.90;;;4.00;99.90;;;;;;5043497;28;20060;-71
2022/04/02 07:05:18;;;;;;;2.78;1.70;;;4.00;99.90;;;;;;5076519;28;20041;-70
2022/04/02 07:07:45;;;;;;;4.00;1.98;;;4.00;99.90;;;;;;5076999;28;20036;-72
2022/04/02 07:10:11;;;;;;;2.40;1.90;;;4.00;99.90;;;;;;5077216;28;20393;-71
2022/04/02 07:12:37;;;;;;;4.47;2.05;;;4.10;99.90;;;;;;5060718;28;20029;-71
2022/04/02 07:15:04;;;;;;;4.70;2.00;;;4.00;99.90;;;;;;5076629;28;20416;-72
2022/04/02 07:17:31;;;;;;;4.47;1.90;;;4.00;99.90;;;;;;5060542;28;20028;-71
2022/04/02 07:19:59;;;;;;;3.90;2.22;;;4.00;99.90;;;;;;5059742;28;20036;-70
2022/04/02 07:22:25;;;;;;;3.55;1.95;;;4.00;99.90;;;;;;5060071;28;20028;-71
2022/04/02 07:24:53;;;;;;;3.10;1.70;;;4.00;99.90;;;;;;5076626;28;20098;-71
2022/04/02 07:27:29;;;;;;;2.50;1.80;;;4.10;99.90;;;;;;5076298;28;20335;-71
2022/04/02 07:29:58;;;;;;;3.63;2.00;;;4.10;99.90;;;;;;5059750;28;20067;-70
2022/04/02 07:32:24;;;;;;;4.72;1.73;;;4.10;99.90;;;;;;5077082;28;20339;-70
2022/04/02 07:34:50;;;;;;;2.90;1.90;;;4.20;99.90;;;;;;5076500;28;20089;-71
2022/04/02 07:37:58;;;;;;;3.45;2.10;;;4.20;99.90;;;;;;5060239;28;20400;-70
2022/04/02 07:40:29;;;;;;;3.13;1.80;;;4.10;99.90;;;;;;5059471;28;20052;-70
2022/04/02 07:43:24;;;;;;;2.70;1.88;;;4.10;99.90;;;;;;5076243;28;20031;-70
2022/04/02 07:46:11;;;;;;;2.97;1.88;;;4.00;99.90;;;;;;5077271;28;20060;-70
2022/04/02 07:48:39;;;;;;;2.65;1.73;;;4.10;99.90;;;;;;5076192;28;20025;-71
2022/04/02 07:51:11;;;;;;;4.63;1.90;;;4.20;99.90;;;;;;5076327;28;20044;-71
2022/04/02 07:53:44;;;;;;;3.28;2.10;;;4.30;99.90;;;;;;5076264;28;20079;-72
2022/04/02 07:56:14;;;;;;;2.72;1.70;;;4.50;99.90;;;;;;5077072;28;20312;-73
2022/04/02 07:58:44;;;;;;;2.90;1.80;;;4.60;99.90;;;;;;5075837;28;20394;-71
2022/04/02 08:01:13;;;;;;;3.38;2.03;;;4.70;99.90;;;;;;5075843;28;20033;-73
2022/04/02 08:03:44;;;;;;;3.17;2.00;;;4.70;99.90;;;;;;5075818;28;20103;-71
2022/04/02 08:06:16;;;;;;;3.10;1.92;;;4.60;99.90;;;;;;5059980;28;20082;-72
2022/04/02 08:08:42;;;;;;;4.60;2.10;;;4.70;99.90;;;;;;5059208;28;20464;-72
2022/04/02 08:11:13;;;;;;;2.40;1.80;;;4.90;99.90;;;;;;5078873;28;20036;-70
2022/04/02 08:13:43;;;;;;;2.05;1.63;;;5.10;99.90;;;;;;5080027;28;20270;-71
2022/04/02 08:16:10;;;;;;;3.28;1.92;;;5.10;99.90;;;;;;5079758;28;20032;-72
2022/04/02 08:18:39;;;;;;;3.25;1.80;;;5.20;99.90;;;;;;5080392;28;20434;-70
2022/04/02 08:21:07;;;;;;;3.22;1.70;;;5.30;99.90;;;;;;5080183;28;20024;-74
2022/04/02 08:23:35;;;;;;;2.80;1.58;;;5.40;99.90;;;;;;5080245;28;20074;-72
2022/04/02 08:26:39;;;;;;;3.95;1.80;;;5.40;99.90;;;;;;5079548;28;20079;-72
2022/04/02 08:29:28;;;;;;;2.33;1.65;;;5.50;99.90;;;;;;5056643;28;20036;-72
2022/04/02 08:32:27;;;;;;;2.08;1.50;;;5.50;99.90;;;;;;5079403;28;20039;-71
2022/04/02 08:35:06;;;;;;;6.40;1.75;;;5.50;99.90;;;;;;5079630;28;20299;-72
2022/04/02 08:38:09;;;;;;;4.00;1.70;;;5.60;99.90;;;;;;5080353;28;20035;-71
2022/04/02 08:41:02;;;;;;;1.92;1.40;;;5.60;99.90;;;;;;5079264;28;20297;-72
2022/04/02 08:44:06;;;;;;;4.28;2.13;;;5.40;99.90;;;;;;5079265;28;20408;-73
2022/04/02 08:46:31;;;;;;;;;;;5.30;99.90;;;;;;5079513;28;20028;-72
2022/04/02 08:49:17;;;;;;;2.97;1.50;;;5.50;99.90;;;;;;5078992;28;19999;-72
2022/04/02 08:51:48;;;;;;;3.20;1.70;;;5.60;99.90;;;;;;5079706;28;20035;-72
2022/04/02 08:54:26;;;;;;;2.83;1.83;;;5.70;99.90;;;;;;5079963;28;20107;-72
2022/04/02 08:57:02;;;;;;;3.10;1.90;;;5.70;99.90;;;;;;5078853;28;20024;-72
2022/04/02 08:59:38;;;;;;;3.22;1.80;;;5.90;99.90;;;;;;5078814;28;20063;-69
2022/04/02 09:02:24;;;;;;;2.20;1.70;;;6.10;99.90;;;;;;5078675;28;20029;-72
2022/04/02 09:04:56;;;;;;;2.78;1.75;;;6.20;99.90;;;;;;5078723;28;20043;-71
2022/04/02 09:07:46;;;;;;;3.17;1.70;;;6.30;99.90;;;;;;5078697;28;20374;-71
2022/04/02 09:10:49;;;;;;;5.40;2.00;;;6.40;99.90;;;;;;5079225;28;20086;-72
2022/04/02 09:13:15;;;;;;;5.82;2.25;;;6.30;99.90;;;;;;5078563;28;20125;-72
2022/04/02 09:16:20;;;;;;;3.33;2.00;;;6.50;99.90;;;;;;5078596;28;20353;-73
2022/04/02 09:19:04;;;;;;;2.22;1.60;;;6.50;99.90;;;;;;5079239;28;20048;-71
2022/04/02 09:21:45;;;;;;;5.07;1.38;;;6.80;99.90;;;;;;5078946;28;20033;-72
2022/04/02 09:24:26;;;;;;;3.40;1.88;;;6.70;99.90;;;;;;5079707;28;20047;-72
2022/04/02 09:26:59;;;;;;;4.65;1.55;;;6.90;99.90;;;;;;5078831;28;20024;-73
2022/04/02 09:29:50;;;;;;;2.67;1.52;;;6.70;99.90;;;;;;5078679;28;20097;-73
2022/04/02 09:32:58;;;;;;;4.03;1.80;;;7.00;99.90;;;;;;5078290;28;20024;-73
2022/04/02 09:35:51;;;;;;;2.47;1.38;;;7.20;99.90;;;;;;5078356;28;20028;-74
2022/04/02 09:38:42;;;;;;;2.92;1.65;;;7.50;99.90;;;;;;5079050;28;20036;-72
2022/04/02 09:41:16;;;;;;;3.72;1.55;;;7.80;99.90;;;;;;5078314;28;20040;-72
2022/04/02 09:43:59;;;;;;;2.22;1.60;;;7.60;99.90;;;;;;5061767;28;20411;-73
2022/04/02 09:46:40;;;;;;;2.30;1.48;;;7.50;99.90;;;;;;5078775;28;20070;-72
2022/04/02 09:49:06;;;;;;;3.85;1.77;;;7.40;99.90;;;;;;5061155;28;20067;-72
2022/04/02 09:51:34;;;;;;;2.45;1.52;;;7.40;99.90;;;;;;5078382;28;20048;-73
2022/04/02 09:54:12;;;;;;;3.45;1.40;;;7.10;99.90;;;;;;5079061;28;20029;-73
2022/04/02 09:56:43;;;;;;;2.83;1.73;;;7.10;99.90;;;;;;5078901;28;20028;-71
2022/04/02 09:59:44;;;;;;;1.92;1.73;;;7.40;99.90;;;;;;5077735;28;20051;-71
2022/04/02 10:02:33;;;;;;;3.13;1.45;;;7.60;99.90;;;;;;5077995;28;20408;-71
2022/04/02 10:05:07;;;;;;;2.67;1.25;;;7.80;99.90;;;;;;5077946;28;20040;-71
2022/04/02 10:07:59;;;;;;;2.65;1.50;;;7.70;99.90;;;;;;5078256;28;20028;-71
2022/04/02 10:10:28;;;;;;;3.42;1.40;;;8.10;99.90;;;;;;5077481;28;20063;-72
2022/04/02 10:12:56;;;;;;;2.75;1.50;;;8.70;99.90;;;;;;5060849;28;20052;-72
2022/04/02 10:15:25;;;;;;;2.92;1.63;;;8.80;99.90;;;;;;5078560;28;20051;-72
2022/04/02 10:17:52;;;;;;;1.90;1.67;;;9.30;99.90;;;;;;5061178;28;20052;-72
2022/04/02 10:20:20;;;;;;;1.92;1.70;;;9.40;99.90;;;;;;5077595;28;20040;-71
2022/04/02 10:22:47;;;;;;;4.20;1.83;;;9.20;99.90;;;;;;5078385;28;20115;-71
2022/04/02 10:25:14;;;;;;;3.05;1.90;;;8.80;99.90;;;;;;5077954;28;20040;-72
2022/04/02 10:27:44;;;;;;;2.28;1.60;;;9.10;99.90;;;;;;5077524;28;20021;-72
2022/04/02 10:30:15;;;;;;;3.15;1.90;;;9.10;99.90;;;;;;5078323;28;20372;-72
2022/04/02 10:33:26;;;;;;;3.05;2.00;;;9.10;99.90;;;;;;5060917;28;20058;-73
2022/04/02 10:35:49;;;;;;;3.25;2.00;;;9.00;99.90;;;;;;5077520;28;20096;-71
2022/04/02 10:38:40;;;;;;;2.30;2.10;;;8.40;99.90;;;;;;5077646;28;20032;-72
2022/04/02 10:41:16;;;;;;;2.08;1.73;;;7.90;99.90;;;;;;5078287;28;20059;-72
2022/04/02 10:43:55;;;;;;;2.42;1.70;;;8.00;99.90;;;;;;5080331;28;20384;-74
2022/04/02 10:46:24;;;;;;;3.85;2.00;;;8.00;99.90;;;;;;5078504;28;20316;-72
2022/04/02 10:49:04;;;;;;;5.70;1.92;;;8.00;99.90;;;;;;5078368;28;20043;-74
2022/04/02 10:51:32;;;;;;;1.92;1.45;;;7.70;99.90;;;;;;5078302;28;20384;-72
2022/04/02 10:54:07;;;;;;;3.85;1.90;;;7.60;99.90;;;;;;5077968;28;20044;-72
2022/04/02 10:56:45;;;;;;;2.13;1.92;;;7.10;99.90;;;;;;5077624;28;20100;-74
2022/04/02 10:59:13;;;;;;;3.65;1.75;;;7.10;99.90;;;;;;5078025;28;20320;-72
2022/04/02 11:01:41;;;;;;;4.07;1.90;;;7.00;99.90;;;;;;5078067;28;20024;-75
2022/04/02 11:04:25;;;;;;;4.28;1.88;;;7.20;99.90;;;;;;5078171;28;20040;-73
2022/04/02 11:06:51;;;;;;;3.00;1.80;;;7.30;99.90;;;;;;5060031;28;20029;-73
2022/04/02 11:09:34;;;;;;;4.45;2.38;;;7.60;99.90;;;;;;5076513;28;20411;-70
2022/04/02 11:12:11;;;;;;;2.13;1.80;;;7.60;99.90;;;;;;5076572;28;20391;-71
2022/04/02 11:14:39;;;;;;;3.15;2.08;;;7.30;99.90;;;;;;5076545;28;20048;-72
2022/04/02 11:17:05;;;;;;;4.47;1.50;;;7.10;99.90;;;;;;5060125;28;20020;-71
2022/04/02 11:19:55;;;;;;;2.33;1.67;;;7.10;99.90;;;;;;5077388;28;20046;-72
2022/04/02 11:22:27;;;;;;;5.13;1.90;;;6.90;99.90;;;;;;5077165;28;20099;-71
2022/04/02 11:25:10;;;;;;;5.32;2.00;;;7.10;99.90;;;;;;5076733;28;20111;-71
2022/04/02 11:27:38;;;;;;;5.65;1.92;;;7.40;99.90;;;;;;5076240;28;20028;-72
2022/04/02 11:30:10;;;;;;;3.80;2.08;;;8.10;99.90;;;;;;5077243;28;20264;-73
2022/04/02 11:32:41;;;;;;;2.38;1.90;;;8.30;99.90;;;;;;5077034;28;20029;-72
2022/04/02 11:35:16;;;;;;;4.07;2.42;;;8.20;99.90;;;;;;5077049;28;20402;-74
2022/04/02 11:38:07;;;;;;;5.28;2.42;;;8.60;99.90;;;;;;5076271;28;20029;-72
2022/04/02 11:40:38;;;;;;;2.95;1.80;;;9.40;99.90;;;;;;5076584;28;20055;-71
2022/04/02 11:43:05;;;;;;;3.05;2.17;;;9.70;99.90;;;;;;5077034;28;20089;-72
2022/04/02 11:45:31;;;;;;;3.80;2.10;;;10.10;99.90;;;;;;5062882;28;20118;-72
2022/04/02 11:48:16;;;;;;;3.67;1.63;;;10.40;99.90;;;;;;5047770;28;20103;-73
2022/04/02 11:50:43;;;;;;;3.08;1.70;;;9.70;99.90;;;;;;5080862;28;20036;-72
2022/04/02 11:53:10;;;;;;;2.67;1.90;;;9.10;99.90;;;;;;5081292;28;20024;-72
2022/04/02 11:55:38;;;;;;;3.33;2.05;;;8.80;99.90;;;;;;5081406;28;20124;-71
2022/04/02 11:58:09;;;;;;;2.70;1.85;;;8.90;99.90;;;;;;5063888;28;20075;-72
2022/04/02 12:00:41;;;;;;;3.08;2.08;;;8.90;99.90;;;;;;5081069;28;20055;-72
2022/04/02 12:03:23;;;;;;;3.75;2.00;;;9.10;99.90;;;;;;5080946;28;20044;-73
2022/04/02 12:05:50;;;;;;;2.47;1.90;;;9.30;99.90;;;;;;5080679;28;20312;-72
2022/04/02 12:08:30;;;;;;;3.70;2.22;;;9.50;99.90;;;;;;5063310;28;20127;-72
2022/04/02 12:10:58;;;;;;;2.28;1.88;;;9.80;99.90;;;;;;5080554;28;20032;-72
2022/04/02 12:13:25;;;;;;;3.13;1.92;;;11.00;99.90;;;;;;5081050;28;20033;-72
2022/04/02 12:16:09;;;;;;;4.82;1.90;;;12.70;97.90;;;;;;5080075;28;20040;-72
2022/04/02 12:18:54;;;;;;;2.92;2.08;;;12.90;96.90;;;;;;5079970;28;20412;-69
2022/04/02 12:21:37;;;;;;;3.65;2.00;;;13.70;95.10;;;;;;5079520;28;20033;-70
2022/04/02 12:24:04;;;;;;;;;;;15.20;93.10;;;;;;5079916;28;20039;-68
2022/04/02 12:26:31;;;;;;;2.47;1.70;;;16.70;88.50;;;;;;5062675;28;19931;-71
2022/04/02 12:29:01;;;;;;;4.72;2.10;;;16.70;82.60;;;;;;5062870;28;20033;-72
2022/04/02 12:31:30;;;;;;;4.22;2.05;;;16.10;82.90;;;;;;5080020;28;20108;-71
2022/04/02 12:33:58;;;;;;;2.20;2.00;;;16.10;81.20;;;;;;5080777;28;20029;-70
2022/04/02 12:36:38;;;;;;;5.32;2.30;;;14.40;82.50;;;;;;5079512;28;20082;-71
2022/04/02 12:39:10;;;;;;;2.25;2.05;;;14.30;84.70;;;;;;5079107;28;20094;-71
2022/04/02 12:41:48;;;;;;;2.97;1.88;;;14.50;84.90;;;;;;5079176;28;20099;-70
2022/04/02 12:44:19;;;;;;;2.30;2.10;;;14.30;83.60;;;;;;5079154;28;20328;-70
2022/04/02 12:46:47;;;;;;;3.00;2.15;;;14.20;83.00;;;;;;5079222;28;20020;-70
2022/04/02 12:49:33;;;;;;;2.00;1.80;;;15.20;81.70;;;;;;5079255;28;20470;-71
2022/04/02 12:52:16;;;;;;;2.58;2.30;;;14.90;79.80;;;;;;5080177;28;20058;-69
2022/04/02 12:54:50;;;;;;;;;;;13.80;83.10;;;;;;5080863;28;20020;-71
2022/04/02 12:57:17;;;;;;;5.43;1.88;;;12.40;86.10;;;;;;5079402;28;19912;-71
2022/04/02 12:59:50;;;;;;;3.28;2.00;;;11.20;89.40;;;;;;5079819;28;20101;-71
2022/04/02 13:02:21;;;;;;;8.68;2.25;;;10.60;90.80;;;;;;5079018;28;20032;-68
2022/04/02 13:04:53;;;;;;;4.50;2.33;;;9.80;91.50;;;;;;5080181;28;20028;-70
2022/04/02 13:07:21;;;;;;;4.40;2.27;;;9.30;92.50;;;;;;5079151;28;20102;-72
2022/04/02 13:09:50;;;;;;;2.90;1.85;;;9.20;92.40;;;;;;5079761;28;20021;-68
2022/04/02 13:12:21;;;;;;;2.95;1.83;;;9.10;92.60;;;;;;5078794;28;20020;-72
2022/04/02 13:15:09;;;;;;;4.32;1.88;;;9.00;92.80;;;;;;5078962;28;20029;-70
2022/04/02 13:20:37;;;;;;;2.17;1.45;;;9.80;92.00;;;;;;5089124;28;20040;-70
2022/04/02 13:23:05;;;;;;;2.15;1.65;;;10.00;91.40;;;;;;5062842;28;20040;-70
2022/04/02 13:25:34;;;;;;;3.10;2.00;;;9.50;92.00;;;;;;5062127;28;20388;-73
2022/04/02 13:28:22;;;;;;;2.85;1.92;;;9.20;92.90;;;;;;5079887;28;20070;-70